sensor_id;sensor_type;location;lat;lon;timestamp;temperature;humidity
65995;HTU21D;52764;51.036;5.852;2023-06-22T00:00:53;24.63;49.56
65995;HTU21D;52764;51.036;5.852;2023-06-22T00:03:21;24.60;49.53
65995;HTU21D;52764;51.036;5.852;2023-06-22T00:11:25;24.49;50.25
65995;HTU21D;52764;51.036;5.852;2023-06-22T00:13:51;24.45;50.14
65995;HTU21D;52764;51.036;5.852;2023-06-22T00:16:16;24.43;49.93
65995;HTU21D;52764;51.036;5.852;2023-06-22T00:18:42;24.43;50.00
65995;HTU21D;52764;51.036;5.852;2023-06-22T00:21:13;24.42;50.21
65995;HTU21D;52764;51.036;5.852;2023-06-22T00:23:38;24.40;50.47
65995;HTU21D;52764;51.036;5.852;2023-06-22T00:26:04;24.39;50.68
65995;HTU21D;52764;51.036;5.852;2023-06-22T00:28:30;24.39;50.69
65995;HTU21D;52764;51.036;5.852;2023-06-22T00:30:55;24.38;50.47
65995;HTU21D;52764;51.036;5.852;2023-06-22T00:33:21;24.39;50.34
65995;HTU21D;52764;51.036;5.852;2023-06-22T00:35:47;24.33;50.75
65995;HTU21D;52764;51.036;5.852;2023-06-22T00:38:13;24.33;50.99
65995;HTU21D;52764;51.036;5.852;2023-06-22T00:40:41;24.34;50.46
65995;HTU21D;52764;51.036;5.852;2023-06-22T00:43:07;24.33;49.94
65995;HTU21D;52764;51.036;5.852;2023-06-22T00:45:32;24.33;49.55
65995;HTU21D;52764;51.036;5.852;2023-06-22T00:47:59;24.32;49.42
65995;HTU21D;52764;51.036;5.852;2023-06-22T00:50:28;24.32;49.31
65995;HTU21D;52764;51.036;5.852;2023-06-22T00:53:00;24.31;49.02
65995;HTU21D;52764;51.036;5.852;2023-06-22T00:55:26;24.30;49.26
65995;HTU21D;52764;51.036;5.852;2023-06-22T00:57:53;24.31;49.24
65995;HTU21D;52764;51.036;5.852;2023-06-22T01:00:24;24.29;49.20
65995;HTU21D;52764;51.036;5.852;2023-06-22T01:02:51;24.26;49.82
65995;HTU21D;52764;51.036;5.852;2023-06-22T01:05:22;24.20;49.97
65995;HTU21D;52764;51.036;5.852;2023-06-22T01:10:30;24.17;50.13
65995;HTU21D;52764;51.036;5.852;2023-06-22T01:13:22;24.14;50.39
65995;HTU21D;52764;51.036;5.852;2023-06-22T01:18:26;24.09;51.43
65995;HTU21D;52764;51.036;5.852;2023-06-22T01:20:55;24.05;52.54
65995;HTU21D;52764;51.036;5.852;2023-06-22T01:23:36;24.00;52.84
65995;HTU21D;52764;51.036;5.852;2023-06-22T01:28:55;24.01;51.68
65995;HTU21D;52764;51.036;5.852;2023-06-22T01:31:24;24.01;51.69
65995;HTU21D;52764;51.036;5.852;2023-06-22T01:33:57;24.01;51.59
65995;HTU21D;52764;51.036;5.852;2023-06-22T01:36:25;23.98;51.67
65995;HTU21D;52764;51.036;5.852;2023-06-22T01:38:53;23.97;51.81
65995;HTU21D;52764;51.036;5.852;2023-06-22T01:41:24;23.94;52.00
65995;HTU21D;52764;51.036;5.852;2023-06-22T01:43:52;23.89;52.58
65995;HTU21D;52764;51.036;5.852;2023-06-22T01:46:20;23.87;53.15
65995;HTU21D;52764;51.036;5.852;2023-06-22T01:48:47;23.83;53.90
65995;HTU21D;52764;51.036;5.852;2023-06-22T01:51:13;23.82;54.35
65995;HTU21D;52764;51.036;5.852;2023-06-22T01:53:40;23.76;54.62
65995;HTU21D;52764;51.036;5.852;2023-06-22T01:56:06;23.73;55.18
65995;HTU21D;52764;51.036;5.852;2023-06-22T01:58:33;23.70;55.30
65995;HTU21D;52764;51.036;5.852;2023-06-22T02:01:09;23.68;55.38
65995;HTU21D;52764;51.036;5.852;2023-06-22T02:03:41;23.64;55.65
65995;HTU21D;52764;51.036;5.852;2023-06-22T02:06:21;23.60;55.92
65995;HTU21D;52764;51.036;5.852;2023-06-22T02:08:57;23.58;56.15
65995;HTU21D;52764;51.036;5.852;2023-06-22T02:11:26;23.60;56.23
65995;HTU21D;52764;51.036;5.852;2023-06-22T02:13:53;23.64;56.26
65995;HTU21D;52764;51.036;5.852;2023-06-22T02:16:21;23.64;56.37
65995;HTU21D;52764;51.036;5.852;2023-06-22T02:18:47;23.66;56.45
65995;HTU21D;52764;51.036;5.852;2023-06-22T02:21:17;23.64;56.58
65995;HTU21D;52764;51.036;5.852;2023-06-22T02:23:43;23.68;56.55
65995;HTU21D;52764;51.036;5.852;2023-06-22T02:26:09;23.68;56.70
65995;HTU21D;52764;51.036;5.852;2023-06-22T02:28:35;23.66;56.88
65995;HTU21D;52764;51.036;5.852;2023-06-22T02:31:01;23.67;57.02
65995;HTU21D;52764;51.036;5.852;2023-06-22T02:33:26;23.69;57.06
65995;HTU21D;52764;51.036;5.852;2023-06-22T02:35:53;23.65;57.26
65995;HTU21D;52764;51.036;5.852;2023-06-22T02:38:21;23.59;57.65
65995;HTU21D;52764;51.036;5.852;2023-06-22T02:40:51;23.56;57.94
65995;HTU21D;52764;51.036;5.852;2023-06-22T02:43:16;23.57;58.18
65995;HTU21D;52764;51.036;5.852;2023-06-22T02:45:44;23.52;58.42
65995;HTU21D;52764;51.036;5.852;2023-06-22T02:48:10;23.47;58.58
65995;HTU21D;52764;51.036;5.852;2023-06-22T02:50:36;23.45;58.74
65995;HTU21D;52764;51.036;5.852;2023-06-22T02:53:03;23.43;58.92
65995;HTU21D;52764;51.036;5.852;2023-06-22T02:55:33;23.39;59.07
65995;HTU21D;52764;51.036;5.852;2023-06-22T02:57:59;23.36;59.23
65995;HTU21D;52764;51.036;5.852;2023-06-22T03:00:27;23.32;59.33
65995;HTU21D;52764;51.036;5.852;2023-06-22T03:02:57;23.34;59.37
65995;HTU21D;52764;51.036;5.852;2023-06-22T03:05:23;23.30;59.50
65995;HTU21D;52764;51.036;5.852;2023-06-22T03:07:50;23.21;59.75
65995;HTU21D;52764;51.036;5.852;2023-06-22T03:10:16;23.16;59.96
65995;HTU21D;52764;51.036;5.852;2023-06-22T03:12:43;23.10;60.28
65995;HTU21D;52764;51.036;5.852;2023-06-22T03:15:11;23.07;60.49
65995;HTU21D;52764;51.036;5.852;2023-06-22T03:17:38;23.02;60.82
65995;HTU21D;52764;51.036;5.852;2023-06-22T03:20:05;22.98;61.11
65995;HTU21D;52764;51.036;5.852;2023-06-22T03:22:38;22.91;61.45
65995;HTU21D;52764;51.036;5.852;2023-06-22T03:25:05;22.88;61.70
65995;HTU21D;52764;51.036;5.852;2023-06-22T03:27:37;22.92;61.74
65995;HTU21D;52764;51.036;5.852;2023-06-22T03:30:08;22.95;61.60
65995;HTU21D;52764;51.036;5.852;2023-06-22T03:32:34;22.95;61.73
65995;HTU21D;52764;51.036;5.852;2023-06-22T03:35:00;22.99;61.81
65995;HTU21D;52764;51.036;5.852;2023-06-22T03:37:26;23.08;61.55
65995;HTU21D;52764;51.036;5.852;2023-06-22T03:39:53;23.12;61.46
65995;HTU21D;52764;51.036;5.852;2023-06-22T03:42:19;23.15;61.50
65995;HTU21D;52764;51.036;5.852;2023-06-22T03:44:45;23.20;61.37
65995;HTU21D;52764;51.036;5.852;2023-06-22T03:47:12;23.23;61.30
65995;HTU21D;52764;51.036;5.852;2023-06-22T03:49:37;23.24;62.15
65995;HTU21D;52764;51.036;5.852;2023-06-22T03:52:04;23.27;61.29
65995;HTU21D;52764;51.036;5.852;2023-06-22T03:54:30;23.27;61.33
65995;HTU21D;52764;51.036;5.852;2023-06-22T03:56:58;23.30;61.31
65995;HTU21D;52764;51.036;5.852;2023-06-22T03:59:25;23.32;61.26
65995;HTU21D;52764;51.036;5.852;2023-06-22T04:01:51;23.32;61.29
65995;HTU21D;52764;51.036;5.852;2023-06-22T04:04:18;23.34;61.25
65995;HTU21D;52764;51.036;5.852;2023-06-22T04:06:44;23.28;61.43
65995;HTU21D;52764;51.036;5.852;2023-06-22T04:09:09;23.24;61.68
65995;HTU21D;52764;51.036;5.852;2023-06-22T04:11:35;23.21;61.82
65995;HTU21D;52764;51.036;5.852;2023-06-22T04:14:01;23.22;61.96
65995;HTU21D;52764;51.036;5.852;2023-06-22T04:16:27;23.18;61.92
65995;HTU21D;52764;51.036;5.852;2023-06-22T04:18:53;23.13;62.05
65995;HTU21D;52764;51.036;5.852;2023-06-22T04:21:19;23.08;62.28
65995;HTU21D;52764;51.036;5.852;2023-06-22T04:23:47;23.02;62.49
65995;HTU21D;52764;51.036;5.852;2023-06-22T04:26:14;22.94;62.83
65995;HTU21D;52764;51.036;5.852;2023-06-22T04:28:40;22.97;62.95
65995;HTU21D;52764;51.036;5.852;2023-06-22T04:31:06;23.01;62.89
65995;HTU21D;52764;51.036;5.852;2023-06-22T04:33:32;23.06;62.73
65995;HTU21D;52764;51.036;5.852;2023-06-22T04:35:58;23.08;62.76
65995;HTU21D;52764;51.036;5.852;2023-06-22T04:38:26;23.13;62.69
65995;HTU21D;52764;51.036;5.852;2023-06-22T04:40:52;23.17;62.59
65995;HTU21D;52764;51.036;5.852;2023-06-22T04:43:19;23.25;62.56
65995;HTU21D;52764;51.036;5.852;2023-06-22T04:45:45;23.26;62.48
65995;HTU21D;52764;51.036;5.852;2023-06-22T04:48:11;23.27;62.58
65995;HTU21D;52764;51.036;5.852;2023-06-22T04:50:42;23.26;62.63
65995;HTU21D;52764;51.036;5.852;2023-06-22T04:53:08;23.31;62.48
65995;HTU21D;52764;51.036;5.852;2023-06-22T04:55:35;23.34;62.31
65995;HTU21D;52764;51.036;5.852;2023-06-22T04:58:03;23.36;62.46
65995;HTU21D;52764;51.036;5.852;2023-06-22T05:00:31;23.38;62.31
65995;HTU21D;52764;51.036;5.852;2023-06-22T05:02:57;23.44;62.21
65995;HTU21D;52764;51.036;5.852;2023-06-22T05:05:24;23.54;61.98
65995;HTU21D;52764;51.036;5.852;2023-06-22T05:07:51;23.60;61.78
65995;HTU21D;52764;51.036;5.852;2023-06-22T05:10:25;23.66;61.71
65995;HTU21D;52764;51.036;5.852;2023-06-22T05:12:51;23.69;61.62
65995;HTU21D;52764;51.036;5.852;2023-06-22T05:15:17;23.70;61.58
65995;HTU21D;52764;51.036;5.852;2023-06-22T05:17:45;23.72;61.67
65995;HTU21D;52764;51.036;5.852;2023-06-22T05:20:12;23.74;61.67
65995;HTU21D;52764;51.036;5.852;2023-06-22T05:22:41;23.76;61.57
65995;HTU21D;52764;51.036;5.852;2023-06-22T05:25:10;23.81;61.51
65995;HTU21D;52764;51.036;5.852;2023-06-22T05:27:36;23.84;61.33
65995;HTU21D;52764;51.036;5.852;2023-06-22T05:30:06;23.84;61.16
65995;HTU21D;52764;51.036;5.852;2023-06-22T05:32:32;23.87;61.13
65995;HTU21D;52764;51.036;5.852;2023-06-22T05:34:59;23.89;61.09
65995;HTU21D;52764;51.036;5.852;2023-06-22T05:37:25;23.90;61.12
65995;HTU21D;52764;51.036;5.852;2023-06-22T05:39:52;23.90;61.45
65995;HTU21D;52764;51.036;5.852;2023-06-22T05:42:18;23.92;61.59
65995;HTU21D;52764;51.036;5.852;2023-06-22T05:44:43;23.95;61.66
65995;HTU21D;52764;51.036;5.852;2023-06-22T05:47:09;23.95;61.83
65995;HTU21D;52764;51.036;5.852;2023-06-22T05:49:35;23.96;62.03
65995;HTU21D;52764;51.036;5.852;2023-06-22T05:52:01;23.98;62.02
65995;HTU21D;52764;51.036;5.852;2023-06-22T05:54:30;23.92;62.60
65995;HTU21D;52764;51.036;5.852;2023-06-22T05:56:55;23.75;63.77
65995;HTU21D;52764;51.036;5.852;2023-06-22T05:59:21;23.55;64.73
65995;HTU21D;52764;51.036;5.852;2023-06-22T06:01:47;23.38;66.19
65995;HTU21D;52764;51.036;5.852;2023-06-22T06:04:19;23.28;66.49
65995;HTU21D;52764;51.036;5.852;2023-06-22T06:06:44;23.22;67.19
65995;HTU21D;52764;51.036;5.852;2023-06-22T06:09:15;23.11;67.39
65995;HTU21D;52764;51.036;5.852;2023-06-22T06:11:41;23.03;68.45
65995;HTU21D;52764;51.036;5.852;2023-06-22T06:14:07;23.05;68.95
65995;HTU21D;52764;51.036;5.852;2023-06-22T06:16:33;23.03;69.11
65995;HTU21D;52764;51.036;5.852;2023-06-22T06:18:59;23.05;68.33
65995;HTU21D;52764;51.036;5.852;2023-06-22T06:21:24;23.09;67.76
65995;HTU21D;52764;51.036;5.852;2023-06-22T06:23:50;23.23;67.07
65995;HTU21D;52764;51.036;5.852;2023-06-22T06:26:16;23.32;66.87
65995;HTU21D;52764;51.036;5.852;2023-06-22T06:28:43;23.40;66.72
65995;HTU21D;52764;51.036;5.852;2023-06-22T06:31:09;23.49;66.38
65995;HTU21D;52764;51.036;5.852;2023-06-22T06:33:36;23.51;66.34
65995;HTU21D;52764;51.036;5.852;2023-06-22T06:36:02;23.30;67.74
65995;HTU21D;52764;51.036;5.852;2023-06-22T06:38:30;23.12;68.58
65995;HTU21D;52764;51.036;5.852;2023-06-22T06:40:56;23.01;69.39
65995;HTU21D;52764;51.036;5.852;2023-06-22T06:43:21;22.99;69.84
65995;HTU21D;52764;51.036;5.852;2023-06-22T06:45:48;23.02;69.79
65995;HTU21D;52764;51.036;5.852;2023-06-22T06:48:14;23.08;70.14
65995;HTU21D;52764;51.036;5.852;2023-06-22T06:50:39;23.23;70.00
65995;HTU21D;52764;51.036;5.852;2023-06-22T06:53:05;23.47;68.75
65995;HTU21D;52764;51.036;5.852;2023-06-22T06:55:31;23.81;67.52
65995;HTU21D;52764;51.036;5.852;2023-06-22T06:57:58;24.18;65.59
65995;HTU21D;52764;51.036;5.852;2023-06-22T07:00:25;24.46;64.37
65995;HTU21D;52764;51.036;5.852;2023-06-22T07:02:51;24.75;62.81
65995;HTU21D;52764;51.036;5.852;2023-06-22T07:05:17;25.01;61.42
65995;HTU21D;52764;51.036;5.852;2023-06-22T07:07:43;25.25;61.15
65995;HTU21D;52764;51.036;5.852;2023-06-22T07:10:09;25.52;60.54
65995;HTU21D;52764;51.036;5.852;2023-06-22T07:12:35;25.74;59.32
65995;HTU21D;52764;51.036;5.852;2023-06-22T07:15:06;25.81;58.02
65995;HTU21D;52764;51.036;5.852;2023-06-22T07:17:36;25.89;57.45
65995;HTU21D;52764;51.036;5.852;2023-06-22T07:20:02;26.02;58.16
65995;HTU21D;52764;51.036;5.852;2023-06-22T07:22:33;26.20;57.04
65995;HTU21D;52764;51.036;5.852;2023-06-22T07:24:59;26.49;55.48
65995;HTU21D;52764;51.036;5.852;2023-06-22T07:27:25;26.61;54.94
65995;HTU21D;52764;51.036;5.852;2023-06-22T07:29:51;26.84;54.10
65995;HTU21D;52764;51.036;5.852;2023-06-22T07:32:16;27.35;53.43
65995;HTU21D;52764;51.036;5.852;2023-06-22T07:34:42;27.93;52.19
65995;HTU21D;52764;51.036;5.852;2023-06-22T07:37:09;27.99;50.79
65995;HTU21D;52764;51.036;5.852;2023-06-22T07:39:34;27.83;51.03
65995;HTU21D;52764;51.036;5.852;2023-06-22T07:42:00;27.83;51.30
65995;HTU21D;52764;51.036;5.852;2023-06-22T07:44:26;27.74;52.10
65995;HTU21D;52764;51.036;5.852;2023-06-22T07:46:51;25.27;51.21
65995;HTU21D;52764;51.036;5.852;2023-06-22T07:49:17;27.52;56.48
65995;HTU21D;52764;51.036;5.852;2023-06-22T07:51:43;27.58;52.49
65995;HTU21D;52764;51.036;5.852;2023-06-22T07:54:09;27.90;52.16
65995;HTU21D;52764;51.036;5.852;2023-06-22T07:56:36;28.53;50.91
65995;HTU21D;52764;51.036;5.852;2023-06-22T07:59:02;29.16;49.50
65995;HTU21D;52764;51.036;5.852;2023-06-22T08:01:29;28.95;48.10
65995;HTU21D;52764;51.036;5.852;2023-06-22T08:03:55;29.70;47.62
65995;HTU21D;52764;51.036;5.852;2023-06-22T08:06:20;29.72;46.99
65995;HTU21D;52764;51.036;5.852;2023-06-22T08:08:46;29.52;47.20
65995;HTU21D;52764;51.036;5.852;2023-06-22T08:11:14;29.34;48.02
65995;HTU21D;52764;51.036;5.852;2023-06-22T08:13:40;29.41;48.07
65995;HTU21D;52764;51.036;5.852;2023-06-22T08:16:06;29.44;48.14
65995;HTU21D;52764;51.036;5.852;2023-06-22T08:18:33;29.27;48.16
65995;HTU21D;52764;51.036;5.852;2023-06-22T08:20:59;29.15;48.95
65995;HTU21D;52764;51.036;5.852;2023-06-22T08:23:24;29.48;48.97
65995;HTU21D;52764;51.036;5.852;2023-06-22T08:25:50;29.83;48.57
65995;HTU21D;52764;51.036;5.852;2023-06-22T08:28:16;19.20;47.61
65995;HTU21D;52764;51.036;5.852;2023-06-22T08:30:42;30.07;47.60
65995;HTU21D;52764;51.036;5.852;2023-06-22T08:33:08;29.85;47.35
65995;HTU21D;52764;51.036;5.852;2023-06-22T08:35:33;29.42;48.57
65995;HTU21D;52764;51.036;5.852;2023-06-22T08:37:59;29.50;48.74
65995;HTU21D;52764;51.036;5.852;2023-06-22T08:40:25;29.77;48.02
65995;HTU21D;52764;51.036;5.852;2023-06-22T08:42:51;29.78;47.57
65995;HTU21D;52764;51.036;5.852;2023-06-22T08:45:19;29.56;48.02
65995;HTU21D;52764;51.036;5.852;2023-06-22T08:47:45;29.43;48.38
65995;HTU21D;52764;51.036;5.852;2023-06-22T08:50:11;29.36;48.86
65995;HTU21D;52764;51.036;5.852;2023-06-22T08:52:38;29.37;49.11
65995;HTU21D;52764;51.036;5.852;2023-06-22T08:55:07;29.30;49.38
65995;HTU21D;52764;51.036;5.852;2023-06-22T08:57:33;29.22;49.81
65995;HTU21D;52764;51.036;5.852;2023-06-22T08:59:59;29.30;49.86
65995;HTU21D;52764;51.036;5.852;2023-06-22T09:02:25;29.42;49.73
65995;HTU21D;52764;51.036;5.852;2023-06-22T09:04:51;29.51;49.27
65995;HTU21D;52764;51.036;5.852;2023-06-22T09:07:22;29.54;49.19
65995;HTU21D;52764;51.036;5.852;2023-06-22T09:09:49;29.44;49.49
65995;HTU21D;52764;51.036;5.852;2023-06-22T09:12:15;29.33;50.39
65995;HTU21D;52764;51.036;5.852;2023-06-22T09:14:40;29.45;50.48
65995;HTU21D;52764;51.036;5.852;2023-06-22T09:17:06;29.42;50.24
65995;HTU21D;52764;51.036;5.852;2023-06-22T09:19:32;29.45;50.25
65995;HTU21D;52764;51.036;5.852;2023-06-22T09:21:58;29.43;50.01
65995;HTU21D;52764;51.036;5.852;2023-06-22T09:24:24;29.26;49.99
65995;HTU21D;52764;51.036;5.852;2023-06-22T09:26:50;29.08;50.37
65995;HTU21D;52764;51.036;5.852;2023-06-22T09:29:16;28.92;50.73
65995;HTU21D;52764;51.036;5.852;2023-06-22T09:31:42;28.73;51.37
65995;HTU21D;52764;51.036;5.852;2023-06-22T09:34:08;28.52;51.66
65995;HTU21D;52764;51.036;5.852;2023-06-22T09:36:33;28.26;52.30
65995;HTU21D;52764;51.036;5.852;2023-06-22T09:38:59;28.15;53.03
65995;HTU21D;52764;51.036;5.852;2023-06-22T09:41:31;28.13;53.51
65995;HTU21D;52764;51.036;5.852;2023-06-22T09:43:57;28.00;53.75
65995;HTU21D;52764;51.036;5.852;2023-06-22T09:46:23;27.88;54.02
65995;HTU21D;52764;51.036;5.852;2023-06-22T09:48:53;27.89;54.43
65995;HTU21D;52764;51.036;5.852;2023-06-22T09:51:20;27.87;54.40
65995;HTU21D;52764;51.036;5.852;2023-06-22T09:53:47;27.83;54.52
65995;HTU21D;52764;51.036;5.852;2023-06-22T09:56:13;27.83;54.55
65995;HTU21D;52764;51.036;5.852;2023-06-22T09:59:01;27.86;54.52
65995;HTU21D;52764;51.036;5.852;2023-06-22T10:01:26;27.88;54.53
65995;HTU21D;52764;51.036;5.852;2023-06-22T10:03:53;27.89;54.67
65995;HTU21D;52764;51.036;5.852;2023-06-22T10:06:22;27.89;54.55
65995;HTU21D;52764;51.036;5.852;2023-06-22T10:08:48;27.89;54.59
65995;HTU21D;52764;51.036;5.852;2023-06-22T10:11:15;27.88;54.46
65995;HTU21D;52764;51.036;5.852;2023-06-22T10:13:41;28.18;55.98
65995;HTU21D;52764;51.036;5.852;2023-06-22T10:16:06;27.24;58.24
65995;HTU21D;52764;51.036;5.852;2023-06-22T10:18:32;26.55;60.25
65995;HTU21D;52764;51.036;5.852;2023-06-22T10:20:58;26.07;62.08
65995;HTU21D;52764;51.036;5.852;2023-06-22T10:23:24;25.74;63.64
65995;HTU21D;52764;51.036;5.852;2023-06-22T10:25:50;25.57;64.96
65995;HTU21D;52764;51.036;5.852;2023-06-22T10:28:16;25.34;67.80
65995;HTU21D;52764;51.036;5.852;2023-06-22T10:30:42;25.16;69.68
65995;HTU21D;52764;51.036;5.852;2023-06-22T10:33:09;24.83;72.18
65995;HTU21D;52764;51.036;5.852;2023-06-22T10:35:36;24.26;74.60
65995;HTU21D;52764;51.036;5.852;2023-06-22T10:38:03;24.06;75.53
65995;HTU21D;52764;51.036;5.852;2023-06-22T10:40:30;23.91;76.05
65995;HTU21D;52764;51.036;5.852;2023-06-22T10:42:56;23.82;76.27
65995;HTU21D;52764;51.036;5.852;2023-06-22T10:45:22;23.66;76.83
65995;HTU21D;52764;51.036;5.852;2023-06-22T10:47:47;23.57;78.18
65995;HTU21D;52764;51.036;5.852;2023-06-22T10:50:13;23.49;79.21
65995;HTU21D;52764;51.036;5.852;2023-06-22T10:52:40;23.47;79.76
65995;HTU21D;52764;51.036;5.852;2023-06-22T10:55:08;23.43;80.22
65995;HTU21D;52764;51.036;5.852;2023-06-22T10:57:34;23.35;80.56
65995;HTU21D;52764;51.036;5.852;2023-06-22T11:00:00;23.24;81.63
65995;HTU21D;52764;51.036;5.852;2023-06-22T11:02:26;23.21;81.89
65995;HTU21D;52764;51.036;5.852;2023-06-22T11:04:53;23.17;82.62
65995;HTU21D;52764;51.036;5.852;2023-06-22T11:07:19;23.27;82.95
65995;HTU21D;52764;51.036;5.852;2023-06-22T11:09:45;23.44;82.13
65995;HTU21D;52764;51.036;5.852;2023-06-22T11:12:11;23.69;83.03
65995;HTU21D;52764;51.036;5.852;2023-06-22T11:14:38;23.95;82.87
65995;HTU21D;52764;51.036;5.852;2023-06-22T11:17:04;24.19;82.60
65995;HTU21D;52764;51.036;5.852;2023-06-22T11:19:30;24.33;81.39
65995;HTU21D;52764;51.036;5.852;2023-06-22T11:21:56;24.50;81.61
65995;HTU21D;52764;51.036;5.852;2023-06-22T11:24:22;24.73;82.17
65995;HTU21D;52764;51.036;5.852;2023-06-22T11:26:47;24.94;80.88
65995;HTU21D;52764;51.036;5.852;2023-06-22T11:29:13;25.05;80.01
65995;HTU21D;52764;51.036;5.852;2023-06-22T11:31:39;25.13;79.91
65995;HTU21D;52764;51.036;5.852;2023-06-22T11:34:04;25.18;78.96
65995;HTU21D;52764;51.036;5.852;2023-06-22T11:36:30;25.20;78.71
65995;HTU21D;52764;51.036;5.852;2023-06-22T11:38:58;25.33;78.12
65995;HTU21D;52764;51.036;5.852;2023-06-22T11:41:24;25.37;76.81
65995;HTU21D;52764;51.036;5.852;2023-06-22T11:43:50;25.45;77.27
65995;HTU21D;52764;51.036;5.852;2023-06-22T11:46:15;25.53;76.82
65995;HTU21D;52764;51.036;5.852;2023-06-22T11:48:41;25.54;75.47
65995;HTU21D;52764;51.036;5.852;2023-06-22T11:51:07;25.53;74.92
65995;HTU21D;52764;51.036;5.852;2023-06-22T11:53:34;25.40;74.22
65995;HTU21D;52764;51.036;5.852;2023-06-22T11:56:00;25.35;74.97
65995;HTU21D;52764;51.036;5.852;2023-06-22T11:58:26;25.42;74.74
65995;HTU21D;52764;51.036;5.852;2023-06-22T12:00:52;24.94;74.55
65995;HTU21D;52764;51.036;5.852;2023-06-22T12:03:18;25.49;74.25
65995;HTU21D;52764;51.036;5.852;2023-06-22T12:05:44;25.49;73.70
65995;HTU21D;52764;51.036;5.852;2023-06-22T12:08:10;25.50;72.92
65995;HTU21D;52764;51.036;5.852;2023-06-22T12:10:35;25.43;72.25
65995;HTU21D;52764;51.036;5.852;2023-06-22T12:13:01;25.29;72.69
65995;HTU21D;52764;51.036;5.852;2023-06-22T12:15:27;25.30;72.99
65995;HTU21D;52764;51.036;5.852;2023-06-22T12:17:53;25.24;72.40
65995;HTU21D;52764;51.036;5.852;2023-06-22T12:20:18;25.19;72.25
65995;HTU21D;52764;51.036;5.852;2023-06-22T12:22:45;25.14;72.41
65995;HTU21D;52764;51.036;5.852;2023-06-22T12:25:10;25.12;72.58
65995;HTU21D;52764;51.036;5.852;2023-06-22T12:27:37;25.15;72.93
65995;HTU21D;52764;51.036;5.852;2023-06-22T12:30:03;25.16;72.61
65995;HTU21D;52764;51.036;5.852;2023-06-22T12:32:30;25.17;72.90
65995;HTU21D;52764;51.036;5.852;2023-06-22T12:34:56;25.20;72.56
65995;HTU21D;52764;51.036;5.852;2023-06-22T12:37:23;25.23;72.03
65995;HTU21D;52764;51.036;5.852;2023-06-22T12:39:49;25.30;71.81
65995;HTU21D;52764;51.036;5.852;2023-06-22T12:42:15;25.50;71.63
65995;HTU21D;52764;51.036;5.852;2023-06-22T12:44:41;25.66;70.77
65995;HTU21D;52764;51.036;5.852;2023-06-22T12:47:08;25.76;70.30
65995;HTU21D;52764;51.036;5.852;2023-06-22T12:49:37;25.84;70.29
65995;HTU21D;52764;51.036;5.852;2023-06-22T12:52:08;25.98;70.10
65995;HTU21D;52764;51.036;5.852;2023-06-22T12:54:34;26.08;68.74
65995;HTU21D;52764;51.036;5.852;2023-06-22T12:56:59;25.99;68.97
65995;HTU21D;52764;51.036;5.852;2023-06-22T12:59:25;25.93;68.14
65995;HTU21D;52764;51.036;5.852;2023-06-22T13:01:51;25.68;68.23
65995;HTU21D;52764;51.036;5.852;2023-06-22T13:04:16;25.54;68.41
65995;HTU21D;52764;51.036;5.852;2023-06-22T13:06:44;25.28;68.65
65995;HTU21D;52764;51.036;5.852;2023-06-22T13:09:14;25.12;69.45
65995;HTU21D;52764;51.036;5.852;2023-06-22T13:11:41;25.14;69.93
65995;HTU21D;52764;51.036;5.852;2023-06-22T13:14:07;25.16;69.72
65995;HTU21D;52764;51.036;5.852;2023-06-22T13:16:33;25.14;69.63
65995;HTU21D;52764;51.036;5.852;2023-06-22T13:18:58;25.20;69.93
65995;HTU21D;52764;51.036;5.852;2023-06-22T13:21:24;25.20;69.32
65995;HTU21D;52764;51.036;5.852;2023-06-22T13:23:51;25.15;69.14
65995;HTU21D;52764;51.036;5.852;2023-06-22T13:26:16;25.21;69.61
65995;HTU21D;52764;51.036;5.852;2023-06-22T13:28:42;25.24;68.47
65995;HTU21D;52764;51.036;5.852;2023-06-22T13:31:08;25.23;67.92
65995;HTU21D;52764;51.036;5.852;2023-06-22T13:33:34;25.01;68.28
65995;HTU21D;52764;51.036;5.852;2023-06-22T13:35:59;24.77;68.59
65995;HTU21D;52764;51.036;5.852;2023-06-22T13:38:25;24.61;69.08
65995;HTU21D;52764;51.036;5.852;2023-06-22T13:40:51;24.45;69.71
65995;HTU21D;52764;51.036;5.852;2023-06-22T13:43:17;24.40;70.69
65995;HTU21D;52764;51.036;5.852;2023-06-22T13:45:43;24.41;70.54
65995;HTU21D;52764;51.036;5.852;2023-06-22T13:48:08;24.38;70.45
65995;HTU21D;52764;51.036;5.852;2023-06-22T13:50:34;24.29;70.80
65995;HTU21D;52764;51.036;5.852;2023-06-22T13:53:00;24.26;70.43
65995;HTU21D;52764;51.036;5.852;2023-06-22T13:55:26;24.15;70.97
65995;HTU21D;52764;51.036;5.852;2023-06-22T13:57:52;24.15;70.93
65995;HTU21D;52764;51.036;5.852;2023-06-22T14:00:18;24.12;71.30
65995;HTU21D;52764;51.036;5.852;2023-06-22T14:02:44;24.06;71.21
65995;HTU21D;52764;51.036;5.852;2023-06-22T14:05:10;23.95;71.35
65995;HTU21D;52764;51.036;5.852;2023-06-22T14:07:36;23.94;71.78
65995;HTU21D;52764;51.036;5.852;2023-06-22T14:10:03;23.97;71.55
65995;HTU21D;52764;51.036;5.852;2023-06-22T14:12:29;23.87;71.70
65995;HTU21D;52764;51.036;5.852;2023-06-22T14:14:55;23.64;73.38
65995;HTU21D;52764;51.036;5.852;2023-06-22T14:17:21;23.21;76.12
65995;HTU21D;52764;51.036;5.852;2023-06-22T14:19:52;22.72;77.98
65995;HTU21D;52764;51.036;5.852;2023-06-22T14:22:22;22.43;80.07
65995;HTU21D;52764;51.036;5.852;2023-06-22T14:24:48;22.34;81.28
65995;HTU21D;52764;51.036;5.852;2023-06-22T14:27:15;22.32;81.97
65995;HTU21D;52764;51.036;5.852;2023-06-22T14:29:41;22.24;82.18
65995;HTU21D;52764;51.036;5.852;2023-06-22T14:32:07;22.14;82.68
65995;HTU21D;52764;51.036;5.852;2023-06-22T14:34:33;22.08;83.09
65995;HTU21D;52764;51.036;5.852;2023-06-22T14:37:02;21.99;83.09
65995;HTU21D;52764;51.036;5.852;2023-06-22T14:39:28;21.89;83.60
65995;HTU21D;52764;51.036;5.852;2023-06-22T14:41:54;21.79;83.94
65995;HTU21D;52764;51.036;5.852;2023-06-22T14:44:20;21.69;84.15
65995;HTU21D;52764;51.036;5.852;2023-06-22T14:46:46;21.66;84.69
65995;HTU21D;52764;51.036;5.852;2023-06-22T14:49:11;21.65;84.84
65995;HTU21D;52764;51.036;5.852;2023-06-22T14:51:37;21.59;84.97
65995;HTU21D;52764;51.036;5.852;2023-06-22T14:54:03;21.50;86.34
65995;HTU21D;52764;51.036;5.852;2023-06-22T14:56:28;21.50;86.22
65995;HTU21D;52764;51.036;5.852;2023-06-22T14:58:55;21.52;85.71
65995;HTU21D;52764;51.036;5.852;2023-06-22T15:01:21;21.45;85.80
65995;HTU21D;52764;51.036;5.852;2023-06-22T15:03:47;21.42;85.71
65995;HTU21D;52764;51.036;5.852;2023-06-22T15:06:12;21.36;86.30
65995;HTU21D;52764;51.036;5.852;2023-06-22T15:08:39;21.32;86.62
65995;HTU21D;52764;51.036;5.852;2023-06-22T15:11:05;23.23;88.48
65995;HTU21D;52764;51.036;5.852;2023-06-22T15:13:32;21.06;88.11
65995;HTU21D;52764;51.036;5.852;2023-06-22T15:16:03;21.02;88.32
65995;HTU21D;52764;51.036;5.852;2023-06-22T15:18:29;21.01;88.09
65995;HTU21D;52764;51.036;5.852;2023-06-22T15:20:55;20.99;88.12
65995;HTU21D;52764;51.036;5.852;2023-06-22T15:23:21;20.96;87.97
65995;HTU21D;52764;51.036;5.852;2023-06-22T15:25:47;20.99;87.44